Time;durP1;ratioP1;P1;durP2;ratioP2;P2;SDS_P1;SDS_P2;PMS_P1;PMS_P2;Temp;Humidity;BMP_temperature;BMP_pressure;BME280_temperature;BME280_humidity;BME280_pressure;Samples;Min_cycle;Max_cycle;Signal;HPM_P1;HPM_P2
2022/11/20 00:02:15;;;;;;;101.68;55.85;;;;;;;;;;5092527;28;20040;-72
2022/11/20 00:04:40;;;;;;;115.78;61.42;;;;;;;;;;5091674;28;20432;-72
2022/11/20 00:07:05;;;;;;;98.38;54.00;;;;;;;;;;5092656;28;20058;-73
2022/11/20 00:09:31;;;;;;;94.30;50.03;;;;;;;;;;5091882;28;20020;-72
2022/11/20 00:11:56;;;;;;;87.88;48.00;;;;;;;;;;5073491;28;20043;-74
2022/11/20 00:14:22;;;;;;;80.72;46.75;;;;;;;;;;5073244;28;20085;-73
2022/11/20 00:16:47;;;;;;;85.88;46.40;;;;;;;;;;5091492;28;20493;-72
2022/11/20 00:19:14;;;;;;;93.75;50.38;;;;;;;;;;5073562;28;20026;-75
2022/11/20 00:21:39;;;;;;;97.15;52.17;;;;;;;;;;5073133;28;20050;-72
2022/11/20 00:24:04;;;;;;;97.13;51.17;;;;;;;;;;5073094;28;20024;-74
2022/11/20 00:26:30;;;;;;;103.75;56.45;;;;;;;;;;5092117;28;20111;-73
2022/11/20 00:28:57;;;;;;;104.50;56.33;;;;;;;;;;5092287;28;20050;-73
2022/11/20 00:31:23;;;;;;;103.00;57.80;;;;;;;;;;5073841;28;20785;-74
2022/11/20 00:33:49;;;;;;;105.95;59.67;;;;;;;;;;5091675;28;20038;-74
2022/11/20 00:36:15;;;;;;;91.28;52.08;;;;;;;;;;5073762;28;20454;-74
2022/11/20 00:38:41;;;;;;;88.00;48.17;;;;;;;;;;5072457;28;20077;-74
2022/11/20 00:41:08;;;;;;;77.70;41.88;;;;;;;;;;5072632;28;20390;-73
2022/11/20 00:43:34;;;;;;;82.28;44.58;;;;;;;;;;5089346;28;20039;-74
2022/11/20 00:45:59;;;;;;;86.10;47.92;;;;;;;;;;5089234;28;20020;-73
2022/11/20 00:48:25;;;;;;;80.90;44.70;;;;;;;;;;5089636;28;20300;-74
2022/11/20 00:50:50;;;;;;;74.95;42.85;;;;;;;;;;5089842;28;20094;-73
2022/11/20 00:53:16;;;;;;;80.43;44.72;;;;;;;;;;5072057;28;20480;-73
2022/11/20 00:55:41;;;;;;;85.35;49.60;;;;;;;;;;5090811;28;20492;-73
2022/11/20 00:58:07;;;;;;;106.90;60.08;;;;;;;;;;5090880;28;20032;-73
2022/11/20 01:00:32;;;;;;;97.03;54.42;;;;;;;;;;5091596;28;20027;-74
2022/11/20 01:02:57;;;;;;;78.00;43.17;;;;;;;;;;5091042;28;20027;-74
2022/11/20 01:05:23;;;;;;;78.65;43.20;;;;;;;;;;5091014;28;20027;-74
2022/11/20 01:07:48;;;;;;;110.15;56.83;;;;;;;;;;5090421;28;20070;-74
2022/11/20 01:10:14;;;;;;;91.90;50.70;;;;;;;;;;5071785;28;20519;-73
2022/11/20 01:12:39;;;;;;;88.03;47.50;;;;;;;;;;5091027;28;20028;-74
2022/11/20 01:15:05;;;;;;;96.57;46.90;;;;;;;;;;5090009;28;20048;-74
2022/11/20 01:17:31;;;;;;;80.57;44.38;;;;;;;;;;5055684;28;20036;-73
2022/11/20 01:19:57;;;;;;;97.85;48.17;;;;;;;;;;5090382;28;20028;-73
2022/11/20 01:22:22;;;;;;;105.22;49.10;;;;;;;;;;5090280;28;20053;-74
2022/11/20 01:24:52;;;;;;;101.07;48.40;;;;;;;;;;5090917;28;20421;-73
2022/11/20 01:27:17;;;;;;;100.32;50.50;;;;;;;;;;5091147;28;20039;-72
2022/11/20 01:29:42;;;;;;;138.25;73.70;;;;;;;;;;5089614;28;20459;-73
2022/11/20 01:32:08;;;;;;;136.65;72.07;;;;;;;;;;5090796;28;20042;-73
2022/11/20 01:34:33;;;;;;;120.03;68.35;;;;;;;;;;5090405;28;20024;-72
2022/11/20 01:36:59;;;;;;;110.53;59.30;;;;;;;;;;5090911;28;20036;-74
2022/11/20 01:39:25;;;;;;;125.45;59.75;;;;;;;;;;5072354;28;20020;-74
2022/11/20 01:44:59;;;;;;;100.60;49.13;;;;;;;;;;5089784;28;20205;-72
2022/11/20 01:47:44;;;;;;;71.03;39.90;;;;;;;;;;5090019;28;20474;-73
2022/11/20 01:50:13;;;;;;;73.57;39.42;;;;;;;;;;5090302;28;20077;-73
2022/11/20 01:52:44;;;;;;;75.45;40.15;;;;;;;;;;5089626;28;20111;-74
2022/11/20 01:55:12;;;;;;;84.40;45.45;;;;;;;;;;5089922;28;20027;-73
2022/11/20 01:57:38;;;;;;;87.95;49.10;;;;;;;;;;5090855;28;20024;-73
2022/11/20 02:00:11;;;;;;;73.05;40.45;;;;;;;;;;5089986;28;20028;-72
2022/11/20 02:02:42;;;;;;;79.95;43.63;;;;;;;;;;5090600;28;20131;-73
2022/11/20 02:05:23;;;;;;;86.60;48.15;;;;;;;;;;5071994;28;20120;-73
2022/11/20 02:07:49;;;;;;;89.50;47.78;;;;;;;;;;5071011;28;20076;-73
2022/11/20 02:10:15;;;;;;;92.78;46.22;;;;;;;;;;5089297;28;20016;-73
2022/11/20 02:15:24;;;;;;;67.80;37.90;;;;;;;;;;5089754;28;20089;-73
2022/11/20 02:17:49;;;;;;;62.13;37.03;;;;;;;;;;5071759;28;20024;-73
2022/11/20 02:20:15;;;;;;;63.30;36.90;;;;;;;;;;5090006;28;20072;-73
2022/11/20 02:23:04;;;;;;;64.03;35.70;;;;;;;;;;5071603;28;20016;-73
2022/11/20 02:25:31;;;;;;;68.40;37.80;;;;;;;;;;5051899;28;20474;-73
2022/11/20 02:27:56;;;;;;;77.32;41.70;;;;;;;;;;5089886;28;20027;-73
2022/11/20 02:30:22;;;;;;;70.10;38.55;;;;;;;;;;5089677;28;20032;-74
2022/11/20 02:32:47;;;;;;;81.38;43.42;;;;;;;;;;5089628;28;20119;-74
2022/11/20 02:35:18;;;;;;;78.90;42.17;;;;;;;;;;5071619;28;20044;-73
2022/11/20 02:37:44;;;;;;;64.07;34.92;;;;;;;;;;5090374;28;20036;-72
2022/11/20 02:40:10;;;;;;;66.35;36.40;;;;;;;;;;5090175;28;20038;-73
2022/11/20 02:42:36;;;;;;;59.92;33.85;;;;;;;;;;5072448;28;20052;-73
2022/11/20 02:45:01;;;;;;;60.45;35.28;;;;;;;;;;5090538;28;20078;-74
2022/11/20 02:47:27;;;;;;;64.13;35.20;;;;;;;;;;5090497;28;20028;-73
2022/11/20 02:49:52;;;;;;;68.30;36.40;;;;;;;;;;5089644;28;20023;-73
2022/11/20 02:52:17;;;;;;;74.55;40.10;;;;;;;;;;5088729;28;20055;-73
2022/11/20 02:54:43;;;;;;;81.38;43.67;;;;;;;;;;5089100;28;20461;-73
2022/11/20 02:57:08;;;;;;;72.40;40.35;;;;;;;;;;5090229;28;20040;-73
2022/11/20 02:59:33;;;;;;;63.45;36.92;;;;;;;;;;5094177;28;20402;-73
2022/11/20 03:01:59;;;;;;;65.10;37.13;;;;;;;;;;5075400;28;20038;-73
2022/11/20 03:04:24;;;;;;;64.15;34.53;;;;;;;;;;5074606;28;20363;-70
2022/11/20 03:06:50;;;;;;;61.97;34.63;;;;;;;;;;5092545;28;20032;-70
2022/11/20 03:09:15;;;;;;;61.15;33.15;;;;;;;;;;5091502;28;20027;-70
2022/11/20 03:11:40;;;;;;;60.05;33.25;;;;;;;;;;5091957;28;20122;-70
2022/11/20 03:14:06;;;;;;;55.80;32.10;;;;;;;;;;5073682;28;20107;-70
2022/11/20 03:16:32;;;;;;;55.25;32.33;;;;;;;;;;5092720;28;20060;-70
2022/11/20 03:18:59;;;;;;;55.60;31.85;;;;;;;;;;5092512;28;20028;-71
2022/11/20 03:21:24;;;;;;;55.83;33.00;;;;;;;;;;5073857;28;20035;-71
2022/11/20 03:23:49;;;;;;;56.20;33.15;;;;;;;;;;5073576;28;20020;-70
2022/11/20 03:26:19;;;;;;;59.08;34.50;;;;;;;;;;5092198;28;20032;-71
2022/11/20 03:28:52;;;;;;;57.97;33.40;;;;;;;;;;5092252;28;20066;-71
2022/11/20 03:31:18;;;;;;;60.75;34.53;;;;;;;;;;5073972;28;20044;-71
2022/11/20 03:33:44;;;;;;;59.38;33.22;;;;;;;;;;5073682;28;20066;-71
2022/11/20 03:36:11;;;;;;;59.25;32.90;;;;;;;;;;5092073;28;20478;-74
2022/11/20 03:38:37;;;;;;;59.88;32.72;;;;;;;;;;5091915;28;20024;-73
2022/11/20 03:41:04;;;;;;;62.40;34.05;;;;;;;;;;5073096;28;20063;-73
2022/11/20 03:43:29;;;;;;;71.07;39.47;;;;;;;;;;5091525;28;20140;-73
2022/11/20 03:45:55;;;;;;;58.80;34.35;;;;;;;;;;5092240;28;20193;-73
2022/11/20 03:48:20;;;;;;;56.97;33.42;;;;;;;;;;5091890;28;20024;-73
2022/11/20 03:50:47;;;;;;;58.63;33.85;;;;;;;;;;5073287;28;20451;-73
2022/11/20 03:53:13;;;;;;;60.30;33.55;;;;;;;;;;5092357;28;20107;-73
2022/11/20 03:55:39;;;;;;;64.95;36.17;;;;;;;;;;5092910;28;20103;-74
2022/11/20 03:58:04;;;;;;;54.95;31.02;;;;;;;;;;5092657;28;20061;-73
2022/11/20 04:00:29;;;;;;;59.55;33.92;;;;;;;;;;5092860;28;20111;-73
2022/11/20 04:02:57;;;;;;;54.88;32.78;;;;;;;;;;5091752;28;20169;-72
2022/11/20 04:05:23;;;;;;;60.13;34.38;;;;;;;;;;5074133;28;20032;-73
2022/11/20 04:07:48;;;;;;;63.08;36.92;;;;;;;;;;5091904;28;20085;-74
2022/11/20 04:10:13;;;;;;;59.40;34.92;;;;;;;;;;5072042;28;20024;-73
2022/11/20 04:12:39;;;;;;;62.38;34.58;;;;;;;;;;5090847;28;20028;-73
2022/11/20 04:15:04;;;;;;;60.20;32.78;;;;;;;;;;5091610;28;20028;-73
2022/11/20 04:17:31;;;;;;;62.28;34.10;;;;;;;;;;5091735;28;20431;-72
2022/11/20 04:19:56;;;;;;;54.63;32.33;;;;;;;;;;5056907;28;20085;-74
2022/11/20 04:22:21;;;;;;;59.60;35.33;;;;;;;;;;5092822;28;20028;-74
2022/11/20 04:24:47;;;;;;;52.63;30.17;;;;;;;;;;5091704;28;20161;-73
2022/11/20 04:27:12;;;;;;;58.95;33.88;;;;;;;;;;5090886;28;20028;-74
2022/11/20 04:29:38;;;;;;;65.82;37.65;;;;;;;;;;5092666;28;20092;-73
2022/11/20 04:32:03;;;;;;;59.00;36.40;;;;;;;;;;5092236;28;20027;-74
2022/11/20 04:34:28;;;;;;;53.45;34.13;;;;;;;;;;5074083;28;20035;-73
2022/11/20 04:36:55;;;;;;;53.58;31.30;;;;;;;;;;5092211;28;20452;-73
2022/11/20 04:39:20;;;;;;;49.80;30.70;;;;;;;;;;5092554;28;20819;-74
2022/11/20 04:41:45;;;;;;;47.15;28.70;;;;;;;;;;5091320;28;20135;-73
2022/11/20 04:44:13;;;;;;;47.20;30.23;;;;;;;;;;5092418;28;20059;-73
2022/11/20 04:46:39;;;;;;;48.08;29.85;;;;;;;;;;5091864;28;20489;-73
2022/11/20 04:49:05;;;;;;;50.03;29.48;;;;;;;;;;5091368;28;20535;-73
2022/11/20 04:51:31;;;;;;;50.47;30.00;;;;;;;;;;5092224;28;20024;-72
2022/11/20 04:53:56;;;;;;;43.38;28.05;;;;;;;;;;5091985;28;20032;-73
2022/11/20 04:56:22;;;;;;;50.45;30.58;;;;;;;;;;5091624;28;20024;-73
2022/11/20 04:58:47;;;;;;;47.22;28.10;;;;;;;;;;5091824;28;20066;-73
2022/11/20 05:01:14;;;;;;;43.65;27.52;;;;;;;;;;5090781;28;20435;-72
2022/11/20 05:03:41;;;;;;;41.65;26.40;;;;;;;;;;5091223;28;20141;-73
2022/11/20 05:06:07;;;;;;;42.25;26.98;;;;;;;;;;5091416;28;20100;-72
2022/11/20 05:08:33;;;;;;;41.58;26.90;;;;;;;;;;5074224;28;20130;-72
2022/11/20 05:11:06;;;;;;;41.03;27.02;;;;;;;;;;5073062;28;20031;-71
2022/11/20 05:13:31;;;;;;;46.40;28.73;;;;;;;;;;5090924;28;20036;-73
2022/11/20 05:16:04;;;;;;;46.08;28.02;;;;;;;;;;5090668;28;20023;-72
2022/11/20 05:18:31;;;;;;;44.67;28.08;;;;;;;;;;5073386;28;20024;-71
2022/11/20 05:20:57;;;;;;;45.95;28.95;;;;;;;;;;5089466;28;20024;-73
2022/11/20 05:23:22;;;;;;;50.08;31.30;;;;;;;;;;5089592;28;20101;-73
2022/11/20 05:25:48;;;;;;;45.60;29.60;;;;;;;;;;5090375;28;20032;-72
2022/11/20 05:28:14;;;;;;;46.47;29.10;;;;;;;;;;5090349;28;20020;-72
2022/11/20 05:30:39;;;;;;;46.65;27.52;;;;;;;;;;5073350;28;20023;-75
2022/11/20 05:33:05;;;;;;;44.35;29.05;;;;;;;;;;5092009;28;20036;-74
2022/11/20 05:35:30;;;;;;;53.63;33.53;;;;;;;;;;5090815;28;20031;-72
2022/11/20 05:37:56;;;;;;;60.08;36.33;;;;;;;;;;5072305;28;20040;-70
2022/11/20 05:40:21;;;;;;;40.13;25.13;;;;;;;;;;5089594;28;20105;-70
2022/11/20 05:42:46;;;;;;;36.67;23.80;;;;;;;;;;5087761;28;20188;-71
2022/11/20 05:45:12;;;;;;;35.65;24.60;;;;;;;;;;5088976;28;20024;-71
2022/11/20 05:47:37;;;;;;;42.65;27.23;;;;;;;;;;5089444;28;20781;-71
2022/11/20 05:50:03;;;;;;;41.58;29.25;;;;;;;;;;5089218;28;20059;-72
2022/11/20 05:52:29;;;;;;;56.28;36.53;;;;;;;;;;5089384;28;20036;-71
2022/11/20 05:54:54;;;;;;;55.08;33.75;;;;;;;;;;5070539;28;20031;-72
2022/11/20 05:57:20;;;;;;;46.10;29.40;;;;;;;;;;5088769;28;20117;-71
2022/11/20 05:59:46;;;;;;;45.55;29.50;;;;;;;;;;5088436;28;20766;-71
2022/11/20 06:02:11;;;;;;;43.03;27.63;;;;;;;;;;5088607;28;20071;-71
2022/11/20 06:04:37;;;;;;;43.65;28.13;;;;;;;;;;5071058;28;20115;-73
2022/11/20 06:07:02;;;;;;;49.28;30.10;;;;;;;;;;5087691;28;20024;-71
2022/11/20 06:09:27;;;;;;;39.28;25.35;;;;;;;;;;5069064;28;20020;-71
2022/11/20 06:11:53;;;;;;;39.92;25.10;;;;;;;;;;5086866;28;20032;-66
2022/11/20 06:14:18;;;;;;;39.42;24.40;;;;;;;;;;5070552;28;20118;-71
2022/11/20 06:16:44;;;;;;;40.70;25.00;;;;;;;;;;5089094;28;20063;-71
2022/11/20 06:19:09;;;;;;;39.45;25.13;;;;;;;;;;5089107;28;20027;-72
2022/11/20 06:21:34;;;;;;;48.33;32.20;;;;;;;;;;5089615;28;20089;-72
2022/11/20 06:24:00;;;;;;;59.17;39.97;;;;;;;;;;5071304;28;20027;-72
2022/11/20 06:26:27;;;;;;;62.72;40.90;;;;;;;;;;5088999;28;20100;-72
2022/11/20 06:28:52;;;;;;;65.07;40.58;;;;;;;;;;5088877;28;20490;-72
2022/11/20 06:31:19;;;;;;;81.95;43.67;;;;;;;;;;5088604;28;20503;-71
2022/11/20 06:33:45;;;;;;;83.35;40.40;;;;;;;;;;5088504;28;20024;-71
2022/11/20 06:36:11;;;;;;;122.25;87.93;;;;;;;;;;5090360;28;20089;-66
2022/11/20 06:38:37;;;;;;;85.78;50.33;;;;;;;;;;5090262;28;20023;-72
2022/11/20 06:41:03;;;;;;;63.05;39.90;;;;;;;;;;5086453;28;20097;-71
2022/11/20 06:43:30;;;;;;;36.88;22.42;;;;;;;;;;5089324;28;20083;-72
2022/11/20 06:45:56;;;;;;;57.05;35.67;;;;;;;;;;5089148;28;20063;-70
2022/11/20 06:48:22;;;;;;;61.70;38.85;;;;;;;;;;5088305;28;20032;-72
2022/11/20 06:50:48;;;;;;;60.42;36.70;;;;;;;;;;5089283;28;20031;-71
2022/11/20 06:53:13;;;;;;;63.60;38.42;;;;;;;;;;5070910;28;20020;-71
2022/11/20 06:55:42;;;;;;;60.47;38.55;;;;;;;;;;5088961;28;20109;-72
2022/11/20 06:58:07;;;;;;;62.38;39.53;;;;;;;;;;5088899;28;20031;-71
2022/11/20 07:00:32;;;;;;;58.88;37.28;;;;;;;;;;5088268;28;20028;-70
2022/11/20 07:02:58;;;;;;;64.10;37.70;;;;;;;;;;5088657;28;20470;-70
2022/11/20 07:05:23;;;;;;;53.70;31.90;;;;;;;;;;5088736;28;20054;-71
2022/11/20 07:07:48;;;;;;;53.45;31.17;;;;;;;;;;5089220;28;20012;-71
2022/11/20 07:10:14;;;;;;;51.30;30.73;;;;;;;;;;5090104;28;20302;-71
2022/11/20 07:12:39;;;;;;;51.42;32.53;;;;;;;;;;5070573;28;20032;-70
2022/11/20 07:15:05;;;;;;;71.18;39.72;;;;;;;;;;5088517;28;20089;-71
2022/11/20 07:17:30;;;;;;;79.90;46.70;;;;;;;;;;5088588;28;20024;-71
2022/11/20 07:19:56;;;;;;;67.63;39.47;;;;;;;;;;5088295;28;20035;-71
2022/11/20 07:22:21;;;;;;;67.57;42.65;;;;;;;;;;5088504;28;20111;-71
2022/11/20 07:24:47;;;;;;;200.18;141.32;;;;;;;;;;5070018;28;20052;-71
2022/11/20 07:27:12;;;;;;;104.10;73.28;;;;;;;;;;5089909;28;20021;-71
2022/11/20 07:29:37;;;;;;;85.05;56.85;;;;;;;;;;5071344;28;20422;-70
2022/11/20 07:32:04;;;;;;;81.45;53.35;;;;;;;;;;5071065;28;20047;-70
2022/11/20 07:34:29;;;;;;;75.63;46.55;;;;;;;;;;5089326;28;20040;-69
2022/11/20 07:36:54;;;;;;;66.35;40.50;;;;;;;;;;5089877;28;20031;-70
2022/11/20 07:39:20;;;;;;;68.93;39.17;;;;;;;;;;5089402;28;20829;-70
2022/11/20 07:41:45;;;;;;;67.95;37.78;;;;;;;;;;5067674;28;20075;-72
2022/11/20 07:44:10;;;;;;;75.70;43.40;;;;;;;;;;5069812;28;20101;-68
2022/11/20 07:46:36;;;;;;;65.00;37.10;;;;;;;;;;5074988;28;20021;-73
2022/11/20 07:49:01;;;;;;;63.20;37.13;;;;;;;;;;5074484;28;20031;-73
2022/11/20 07:51:29;;;;;;;73.38;42.78;;;;;;;;;;5072985;28;20024;-72
2022/11/20 07:53:54;;;;;;;69.10;42.20;;;;;;;;;;5072739;28;20041;-69
2022/11/20 07:56:19;;;;;;;75.00;43.58;;;;;;;;;;5073446;28;20489;-69
2022/11/20 07:58:45;;;;;;;72.57;44.67;;;;;;;;;;5073073;28;20056;-69
2022/11/20 08:01:10;;;;;;;65.15;39.25;;;;;;;;;;5073878;28;20034;-69
2022/11/20 08:03:38;;;;;;;60.63;37.58;;;;;;;;;;5073040;28;20170;-69
2022/11/20 08:06:04;;;;;;;61.95;37.03;;;;;;;;;;5071452;28;20027;-70
2022/11/20 08:08:30;;;;;;;59.17;36.95;;;;;;;;;;5072570;28;20044;-69
2022/11/20 08:14:11;;;;;;;60.25;35.80;;;;;;;;;;5072449;28;20039;-70
2022/11/20 08:16:27;;;;;;;50.28;32.13;;;;;;;;;;5071049;28;20036;-69
2022/11/20 08:18:53;;;;;;;56.75;33.00;;;;;;;;;;5072436;28;20016;-70
2022/11/20 08:21:18;;;;;;;51.72;33.17;;;;;;;;;;5072043;28;20033;-70
2022/11/20 08:23:44;;;;;;;57.25;35.17;;;;;;;;;;5070891;28;20035;-74
2022/11/20 08:26:09;;;;;;;60.08;34.50;;;;;;;;;;5072589;28;20082;-70
2022/11/20 08:28:35;;;;;;;78.72;45.55;;;;;;;;;;5071587;28;20024;-70
2022/11/20 08:31:01;;;;;;;87.10;57.92;;;;;;;;;;5072671;28;20103;-70
2022/11/20 08:33:26;;;;;;;83.55;55.60;;;;;;;;;;5072796;28;20029;-69
2022/11/20 08:35:52;;;;;;;98.80;67.55;;;;;;;;;;5073030;28;20028;-70
2022/11/20 08:38:17;;;;;;;125.55;93.03;;;;;;;;;;5074384;28;20021;-69
2022/11/20 08:41:23;;;;;;;116.30;83.80;;;;;;;;;;5074251;28;20036;-70
2022/11/20 08:43:31;;;;;;;120.25;79.50;;;;;;;;;;5075400;28;20040;-69
2022/11/20 08:45:57;;;;;;;144.50;98.88;;;;;;;;;;5075953;28;20028;-70
2022/11/20 08:48:23;;;;;;;66.20;42.70;;;;;;;;;;5075842;28;20028;-70
2022/11/20 08:50:48;;;;;;;51.17;33.92;;;;;;;;;;5072992;28;20458;-70
2022/11/20 08:53:13;;;;;;;40.53;24.30;;;;;;;;;;5073651;28;20028;-70
2022/11/20 08:55:39;;;;;;;27.70;18.38;;;;;;;;;;5073493;28;20012;-69
2022/11/20 08:58:05;;;;;;;30.80;18.85;;;;;;;;;;5072436;28;20458;-70
2022/11/20 09:00:30;;;;;;;30.48;20.73;;;;;;;;;;5073800;28;20025;-70
2022/11/20 09:02:56;;;;;;;38.58;24.33;;;;;;;;;;5074383;28;20082;-70
2022/11/20 09:05:21;;;;;;;43.28;24.15;;;;;;;;;;5075052;28;20024;-70
2022/11/20 09:07:46;;;;;;;38.10;23.48;;;;;;;;;;5075552;28;20055;-70
2022/11/20 09:10:12;;;;;;;51.03;32.10;;;;;;;;;;5075220;28;20512;-70
2022/11/20 09:12:37;;;;;;;59.78;33.72;;;;;;;;;;5075119;28;20031;-70
2022/11/20 09:15:02;;;;;;;60.45;32.90;;;;;;;;;;5075109;28;20580;-69
2022/11/20 09:17:28;;;;;;;72.32;39.88;;;;;;;;;;5073826;28;20032;-70
2022/11/20 09:19:53;;;;;;;63.38;36.03;;;;;;;;;;5074973;28;20454;-70
2022/11/20 09:22:18;;;;;;;48.67;30.50;;;;;;;;;;5075164;28;20043;-70
2022/11/20 09:24:44;;;;;;;38.85;24.23;;;;;;;;;;5073899;28;20016;-74
2022/11/20 09:27:09;;;;;;;39.10;24.48;;;;;;;;;;5074802;28;20465;-73
2022/11/20 09:29:34;;;;;;;37.80;23.85;;;;;;;;;;5075095;28;20017;-73
2022/11/20 09:32:00;;;;;;;36.60;23.25;;;;;;;;;;5074993;28;20032;-73
2022/11/20 09:34:25;;;;;;;44.53;26.20;;;;;;;;;;5073569;28;20474;-73
2022/11/20 09:36:51;;;;;;;36.50;22.98;;;;;;;;;;5074969;28;20027;-74
2022/11/20 09:39:16;;;;;;;36.78;23.35;;;;;;;;;;5074603;28;20527;-73
2022/11/20 09:41:51;;;;;;;35.58;22.98;;;;;;;;;;5089526;28;20127;-73
2022/11/20 09:44:32;;;;;;;38.70;24.27;;;;;;;;;;5095033;28;20407;-74
2022/11/20 09:46:57;;;;;;;35.13;22.98;;;;;;;;;;5095070;28;20087;-74
2022/11/20 09:49:22;;;;;;;34.50;22.37;;;;;;;;;;5095305;28;20392;-74
2022/11/20 09:52:05;;;;;;;32.38;21.40;;;;;;;;;;5094925;28;20719;-73
2022/11/20 09:54:33;;;;;;;46.40;28.05;;;;;;;;;;5094858;28;20032;-70
2022/11/20 09:57:21;;;;;;;46.45;28.20;;;;;;;;;;5094556;28;20027;-69
2022/11/20 09:59:51;;;;;;;53.67;32.55;;;;;;;;;;5088821;28;20397;-70
2022/11/20 10:02:16;;;;;;;41.88;26.05;;;;;;;;;;5094402;28;20140;-70
2022/11/20 10:04:44;;;;;;;45.22;26.77;;;;;;;;;;5094413;28;20111;-70
2022/11/20 10:07:15;;;;;;;41.92;26.83;;;;;;;;;;5094382;28;20020;-70
2022/11/20 10:09:43;;;;;;;35.45;22.02;;;;;;;;;;5094479;28;20101;-70
2022/11/20 10:12:17;;;;;;;35.47;22.45;;;;;;;;;;5094314;28;20039;-70
2022/11/20 10:14:43;;;;;;;38.88;23.50;;;;;;;;;;5076130;28;20397;-70
2022/11/20 10:17:28;;;;;;;43.80;25.67;;;;;;;;;;5076943;28;20024;-70
2022/11/20 10:20:16;;;;;;;54.75;30.45;;;;;;;;;;5093749;28;20048;-69
2022/11/20 10:22:48;;;;;;;36.70;22.52;;;;;;;;;;5094353;28;20024;-70
2022/11/20 10:25:15;;;;;;;33.63;20.13;;;;;;;;;;5094112;28;20051;-70
2022/11/20 10:27:58;;;;;;;39.17;23.73;;;;;;;;;;5094179;28;20019;-70
2022/11/20 10:30:25;;;;;;;40.45;24.13;;;;;;;;;;5094609;28;20031;-70
2022/11/20 10:33:09;;;;;;;44.72;26.48;;;;;;;;;;5093988;28;20099;-70
2022/11/20 10:35:36;;;;;;;36.40;23.65;;;;;;;;;;5094474;28;20063;-70
2022/11/20 10:38:20;;;;;;;38.80;23.40;;;;;;;;;;5093920;28;20105;-69
2022/11/20 10:40:48;;;;;;;40.15;25.30;;;;;;;;;;5093671;28;20039;-70
2022/11/20 10:43:34;;;;;;;47.10;27.75;;;;;;;;;;5094080;28;20465;-70
2022/11/20 10:46:04;;;;;;;44.00;26.05;;;;;;;;;;5093613;28;20046;-70
2022/11/20 10:48:31;;;;;;;39.67;23.15;;;;;;;;;;5075669;28;20016;-70
2022/11/20 10:50:56;;;;;;;42.60;24.23;;;;;;;;;;5075750;28;20059;-69
2022/11/20 10:53:33;;;;;;;55.33;29.08;;;;;;;;;;5094042;28;20546;-70
2022/11/20 10:56:16;;;;;;;28.27;17.42;;;;;;;;;;5075786;28;20036;-69
2022/11/20 10:58:47;;;;;;;31.52;19.00;;;;;;;;;;5075612;28;20055;-70
2022/11/20 11:01:14;;;;;;;18.02;12.63;;;;;;;;;;5075909;28;20032;-70
2022/11/20 11:03:42;;;;;;;21.95;13.65;;;;;;;;;;5093674;28;20454;-70
2022/11/20 11:06:26;;;;;;;25.25;15.60;;;;;;;;;;5093643;28;20107;-70
2022/11/20 11:08:53;;;;;;;29.75;18.45;;;;;;;;;;5094148;28;20035;-70
2022/11/20 11:11:29;;;;;;;28.27;18.13;;;;;;;;;;5075826;28;20468;-70
2022/11/20 11:14:08;;;;;;;21.13;14.75;;;;;;;;;;5094318;28;20024;-70
2022/11/20 11:16:34;;;;;;;26.15;16.40;;;;;;;;;;5075393;28;20028;-69
2022/11/20 11:19:06;;;;;;;25.90;15.93;;;;;;;;;;5095694;28;20103;-69
2022/11/20 11:21:32;;;;;;;25.30;16.58;;;;;;;;;;5097484;28;20123;-69
2022/11/20 11:24:02;;;;;;;21.20;15.45;;;;;;;;;;5097811;28;20062;-69
2022/11/20 11:26:28;;;;;;;20.88;14.43;;;;;;;;;;5079302;28;20508;-70
2022/11/20 11:29:03;;;;;;;21.55;15.80;;;;;;;;;;5079382;28;20020;-69
2022/11/20 11:31:30;;;;;;;19.35;14.88;;;;;;;;;;5097631;28;20039;-70
2022/11/20 11:34:27;;;;;;;23.67;16.02;;;;;;;;;;5097604;28;20016;-70
2022/11/20 11:36:57;;;;;;;29.98;21.17;;;;;;;;;;5074226;28;20473;-69
2022/11/20 11:39:22;;;;;;;28.90;20.33;;;;;;;;;;5097491;28;20027;-70
2022/11/20 11:41:48;;;;;;;22.75;15.60;;;;;;;;;;5096927;28;20487;-69
2022/11/20 11:47:02;;;;;;;46.00;27.65;;;;;;;;;;5097309;28;20034;-69
2022/11/20 11:49:27;;;;;;;52.70;31.67;;;;;;;;;;5097263;28;20044;-70
2022/11/20 11:52:02;;;;;;;43.00;26.85;;;;;;;;;;5078899;28;20397;-70
2022/11/20 11:54:34;;;;;;;33.88;22.13;;;;;;;;;;5097456;28;20024;-70
2022/11/20 11:57:01;;;;;;;20.73;13.75;;;;;;;;;;5097110;28;20039;-70
2022/11/20 12:00:02;;;;;;;23.67;13.85;;;;;;;;;;5097087;28;20016;-74
2022/11/20 12:02:36;;;;;;;19.48;13.40;;;;;;;;;;5034519;28;20508;-73
2022/11/20 12:05:08;;;;;;;21.85;14.20;;;;;;;;;;5087511;28;20445;-74
2022/11/20 12:07:45;;;;;;;23.23;13.02;;;;;;;;;;5096946;28;20020;-74
2022/11/20 12:10:20;;;;;;;20.50;13.82;;;;;;;;;;5078416;28;20032;-73
2022/11/20 12:12:48;;;;;;;20.98;14.75;;;;;;;;;;5078401;28;20386;-73
2022/11/20 12:15:20;;;;;;;28.80;16.88;;;;;;;;;;5096517;28;20024;-74
2022/11/20 12:17:46;;;;;;;27.40;17.30;;;;;;;;;;5096455;28;20031;-73
2022/11/20 12:20:13;;;;;;;19.25;13.30;;;;;;;;;;5096693;28;20419;-73
2022/11/20 12:22:38;;;;;;;24.13;15.48;;;;;;;;;;5078142;28;20040;-73
2022/11/20 12:25:22;;;;;;;24.25;16.67;;;;;;;;;;5078250;28;20033;-74
2022/11/20 12:27:53;;;;;;;27.95;18.73;;;;;;;;;;5096552;28;20539;-73
2022/11/20 12:30:20;;;;;;;24.55;16.95;;;;;;;;;;5095891;28;20458;-74
2022/11/20 12:33:02;;;;;;;24.88;15.70;;;;;;;;;;5096456;28;20034;-72
2022/11/20 12:35:45;;;;;;;26.00;17.17;;;;;;;;;;5096675;28;20493;-72
2022/11/20 12:38:31;;;;;;;24.77;16.77;;;;;;;;;;5096365;28;20067;-74
2022/11/20 12:45:08;;;;;;;24.67;15.50;;;;;;;;;;5077473;28;20070;-74
2022/11/20 12:47:06;;;;;;;31.30;19.67;;;;;;;;;;5096144;28;20531;-73
2022/11/20 12:49:37;;;;;;;36.97;23.27;;;;;;;;;;5096124;28;20419;-74
2022/11/20 12:52:22;;;;;;;33.15;22.42;;;;;;;;;;5077733;28;20118;-73
2022/11/20 12:54:47;;;;;;;35.33;22.52;;;;;;;;;;5095708;28;20103;-74
2022/11/20 12:57:12;;;;;;;32.05;21.25;;;;;;;;;;5095960;28;20515;-73
2022/11/20 12:59:38;;;;;;;22.77;15.68;;;;;;;;;;5095607;28;20036;-73
2022/11/20 13:02:18;;;;;;;16.60;11.50;;;;;;;;;;5095794;28;20028;-74
2022/11/20 13:04:43;;;;;;;;;;;;;;;;;;5061206;28;20164;-73
2022/11/20 13:07:11;;;;;;;20.50;14.65;;;;;;;;;;5095536;28;19947;-73
2022/11/20 13:09:40;;;;;;;27.25;17.67;;;;;;;;;;5095466;28;20105;-73
2022/11/20 13:12:10;;;;;;;36.55;25.30;;;;;;;;;;5095674;28;20150;-73
2022/11/20 13:14:42;;;;;;;35.55;25.35;;;;;;;;;;5077598;28;20031;-73
2022/11/20 13:17:07;;;;;;;45.38;32.47;;;;;;;;;;5095327;28;20035;-73
2022/11/20 13:19:33;;;;;;;61.08;44.70;;;;;;;;;;5077470;28;20099;-73
2022/11/20 13:21:59;;;;;;;45.72;33.70;;;;;;;;;;5095423;28;20077;-74
2022/11/20 13:24:26;;;;;;;51.75;37.20;;;;;;;;;;5077108;28;20020;-74
2022/11/20 13:27:01;;;;;;;46.53;32.10;;;;;;;;;;5095405;28;20032;-71
2022/11/20 13:29:26;;;;;;;34.70;23.58;;;;;;;;;;5095682;28;20058;-73
2022/11/20 13:32:01;;;;;;;43.80;31.90;;;;;;;;;;5095614;28;20023;-73
2022/11/20 13:34:27;;;;;;;36.67;25.85;;;;;;;;;;5095544;28;20035;-71
2022/11/20 13:36:56;;;;;;;53.95;32.25;;;;;;;;;;5076788;28;20466;-72
2022/11/20 13:39:25;;;;;;;64.57;34.08;;;;;;;;;;5094902;28;20035;-71
2022/11/20 13:41:58;;;;;;;50.28;28.40;;;;;;;;;;5076023;28;20454;-73
2022/11/20 13:44:30;;;;;;;40.25;25.65;;;;;;;;;;5094662;28;20123;-73
2022/11/20 13:46:55;;;;;;;34.13;22.48;;;;;;;;;;5095251;28;20024;-72
2022/11/20 13:49:31;;;;;;;40.25;25.10;;;;;;;;;;5076551;28;20076;-73
2022/11/20 13:52:05;;;;;;;41.90;27.42;;;;;;;;;;5094950;28;20489;-73
2022/11/20 13:54:43;;;;;;;56.42;34.72;;;;;;;;;;5094938;28;20107;-69
2022/11/20 13:57:09;;;;;;;39.33;27.70;;;;;;;;;;5076325;28;20447;-70
2022/11/20 14:00:00;;;;;;;40.70;28.75;;;;;;;;;;5094772;28;20031;-68
2022/11/20 14:02:27;;;;;;;43.33;29.15;;;;;;;;;;5053460;28;20040;-70
2022/11/20 14:04:53;;;;;;;44.05;28.92;;;;;;;;;;5076677;28;20012;-70
2022/11/20 14:07:20;;;;;;;39.10;24.33;;;;;;;;;;5094593;28;20024;-70
2022/11/20 14:09:54;;;;;;;39.92;25.42;;;;;;;;;;5094294;28;20061;-69
2022/11/20 14:12:23;;;;;;;32.10;21.35;;;;;;;;;;5094846;28;20074;-69
2022/11/20 14:14:52;;;;;;;42.80;25.02;;;;;;;;;;5094540;28;20039;-70
2022/11/20 14:17:20;;;;;;;61.28;35.17;;;;;;;;;;5094176;28;20019;-70
2022/11/20 14:19:46;;;;;;;66.45;34.70;;;;;;;;;;5094467;28;20035;-71
2022/11/20 14:22:20;;;;;;;64.82;35.58;;;;;;;;;;5094020;28;20386;-70
2022/11/20 14:25:00;;;;;;;70.13;38.00;;;;;;;;;;5094083;28;20085;-70
2022/11/20 14:27:26;;;;;;;101.55;44.42;;;;;;;;;;5094350;28;20020;-70
2022/11/20 14:29:51;;;;;;;70.15;35.25;;;;;;;;;;5094009;28;20473;-70
2022/11/20 14:32:18;;;;;;;117.00;61.28;;;;;;;;;;5093990;28;20066;-70
2022/11/20 14:34:44;;;;;;;138.25;83.25;;;;;;;;;;5075852;28;20073;-70
2022/11/20 14:37:16;;;;;;;93.68;51.40;;;;;;;;;;5094184;28;20034;-70